createdAt,value
2023-03-20T00:00:51.539Z,24.40
2023-03-20T00:03:18.473Z,22.70
2023-03-20T00:05:45.210Z,25.00
2023-03-20T00:08:12.623Z,27.20
2023-03-20T00:10:41.890Z,25.97
2023-03-20T00:13:14.908Z,27.00
2023-03-20T00:15:43.615Z,28.70
2023-03-20T00:18:18.953Z,26.90
2023-03-20T00:20:46.934Z,23.80
2023-03-20T00:23:13.870Z,24.93
2023-03-20T00:25:43.166Z,24.50
2023-03-20T00:28:45.036Z,25.07
2023-03-20T00:31:35.497Z,23.93
2023-03-20T00:34:06.330Z,25.33
2023-03-20T00:36:33.589Z,25.20
2023-03-20T00:39:00.280Z,24.50
2023-03-20T00:41:32.002Z,24.40
2023-03-20T00:44:02.306Z,23.93
2023-03-20T00:46:38.415Z,25.03
2023-03-20T00:49:05.385Z,24.87
2023-03-20T00:51:32.022Z,25.10
2023-03-20T00:53:58.900Z,24.07
2023-03-20T00:56:35.217Z,25.07
2023-03-20T00:59:03.799Z,25.97
2023-03-20T01:01:31.928Z,24.90
2023-03-20T01:03:59.881Z,24.00
2023-03-20T01:06:26.560Z,25.30
2023-03-20T01:08:53.179Z,25.10
2023-03-20T01:11:23.346Z,26.70
2023-03-20T01:13:52.218Z,27.20
2023-03-20T01:16:24.366Z,27.30
2023-03-20T01:18:51.933Z,23.40
2023-03-20T01:21:19.267Z,24.90
2023-03-20T01:23:46.311Z,26.13
2023-03-20T01:26:26.654Z,24.43
2023-03-20T01:28:53.305Z,25.57
2023-03-20T01:31:19.934Z,24.13
2023-03-20T01:33:46.722Z,23.93
2023-03-20T01:36:15.831Z,25.97
2023-03-20T01:38:43.367Z,24.30
2023-03-20T01:41:18.049Z,24.77
2023-03-20T01:43:45.864Z,25.23
2023-03-20T01:46:17.535Z,24.83
2023-03-20T01:48:50.232Z,25.77
2023-03-20T01:51:21.258Z,22.03
2023-03-20T01:53:57.409Z,24.07
2023-03-20T01:56:24.885Z,24.30
2023-03-20T01:58:58.808Z,23.47
2023-03-20T02:01:27.743Z,25.00
2023-03-20T02:03:55.751Z,24.93
2023-03-20T02:06:23.790Z,24.90
2023-03-20T02:08:51.951Z,24.63
2023-03-20T02:11:22.520Z,23.60
2023-03-20T02:13:52.804Z,22.63
2023-03-20T02:16:20.336Z,22.73
2023-03-20T02:18:51.975Z,22.80
2023-03-20T02:21:57.488Z,23.30
2023-03-20T02:24:58.078Z,21.07
2023-03-20T02:27:53.176Z,21.53
2023-03-20T02:30:38.421Z,20.77
2023-03-20T02:33:23.007Z,22.07
2023-03-20T02:36:02.888Z,21.93
2023-03-20T02:38:48.092Z,21.30
2023-03-20T02:41:23.778Z,19.80
2023-03-20T02:44:13.690Z,17.37
2023-03-20T02:46:46.029Z,17.97
2023-03-20T02:49:39.052Z,17.00
2023-03-20T02:52:09.617Z,16.03
2023-03-20T02:55:02.013Z,16.07
2023-03-20T02:57:43.979Z,16.17
2023-03-20T03:00:15.026Z,15.20
2023-03-20T03:02:52.150Z,14.90
2023-03-20T03:05:28.006Z,12.60
2023-03-20T03:07:57.364Z,12.80
2023-03-20T03:10:29.810Z,11.60
2023-03-20T03:12:58.711Z,11.00
2023-03-20T03:15:41.217Z,11.70
2023-03-20T03:18:14.199Z,12.00
2023-03-20T03:20:42.393Z,11.40
2023-03-20T03:23:37.267Z,11.17
2023-03-20T03:26:06.958Z,9.30
2023-03-20T03:28:51.121Z,9.77
2023-03-20T03:31:19.214Z,10.10
2023-03-20T03:33:49.981Z,9.33
2023-03-20T03:37:00.028Z,8.80
2023-03-20T03:39:53.651Z,8.50
2023-03-20T03:42:29.332Z,8.47
2023-03-20T03:45:04.897Z,8.63
2023-03-20T03:47:52.490Z,8.90
2023-03-20T03:50:37.288Z,9.67
2023-03-20T03:53:10.764Z,8.93
2023-03-20T03:55:45.902Z,8.90
2023-03-20T03:58:29.439Z,8.77
2023-03-20T04:00:59.330Z,9.30
2023-03-20T04:03:33.028Z,7.93
2023-03-20T04:06:02.979Z,8.27
2023-03-20T04:08:29.607Z,7.40
2023-03-20T04:10:56.225Z,7.13
2023-03-20T04:13:22.818Z,8.90
2023-03-20T04:15:49.578Z,9.33
2023-03-20T04:18:18.163Z,7.80
2023-03-20T04:20:46.156Z,8.27
2023-03-20T04:23:14.105Z,9.10
2023-03-20T04:25:41.293Z,9.13
2023-03-20T04:28:07.915Z,8.90
2023-03-20T04:30:34.542Z,8.33
2023-03-20T04:33:01.555Z,8.60
2023-03-20T04:35:28.208Z,9.00
2023-03-20T04:37:54.808Z,9.13
2023-03-20T04:40:21.514Z,8.60
2023-03-20T04:42:48.168Z,9.90
2023-03-20T04:45:14.826Z,8.53
2023-03-20T04:47:41.425Z,9.33
2023-03-20T04:50:08.408Z,9.37
2023-03-20T04:52:35.339Z,8.77
2023-03-20T04:55:01.992Z,9.70
2023-03-20T04:57:28.678Z,8.70
2023-03-20T04:59:55.282Z,9.60
2023-03-20T05:02:21.902Z,10.50
2023-03-20T05:04:48.501Z,10.33
2023-03-20T05:07:15.125Z,9.10
2023-03-20T05:09:41.719Z,9.20
2023-03-20T05:12:09.090Z,8.87
2023-03-20T05:14:35.694Z,10.10
2023-03-20T05:17:02.381Z,7.60
2023-03-20T05:19:29.041Z,7.63
2023-03-20T05:21:55.773Z,7.77
2023-03-20T05:24:22.515Z,7.40
2023-03-20T05:26:49.318Z,7.50
2023-03-20T05:29:16.010Z,6.33
2023-03-20T05:31:42.604Z,7.40
2023-03-20T05:34:09.219Z,7.70
2023-03-20T05:36:36.027Z,8.03
2023-03-20T05:39:02.851Z,7.40
2023-03-20T05:41:29.442Z,7.50
2023-03-20T05:43:56.085Z,9.97
2023-03-20T05:46:23.018Z,9.70
2023-03-20T05:48:49.745Z,10.47
2023-03-20T05:51:16.608Z,9.87
2023-03-20T05:53:43.197Z,10.30
2023-03-20T05:56:09.797Z,10.20
2023-03-20T05:58:37.624Z,11.70
2023-03-20T06:01:04.575Z,11.77
2023-03-20T06:03:31.299Z,12.00
2023-03-20T06:05:57.965Z,10.87
2023-03-20T06:08:24.725Z,9.93
2023-03-20T06:10:51.840Z,11.27
2023-03-20T06:13:18.805Z,10.50
2023-03-20T06:15:45.464Z,10.03
2023-03-20T06:18:12.216Z,10.90
2023-03-20T06:20:38.824Z,10.47
2023-03-20T06:23:06.153Z,9.97
2023-03-20T06:25:33.097Z,9.70
2023-03-20T06:27:59.712Z,9.70
2023-03-20T06:30:27.078Z,8.00
2023-03-20T06:32:53.731Z,8.70
2023-03-20T06:35:20.419Z,8.80
2023-03-20T06:37:47.171Z,7.43
2023-03-20T06:40:13.790Z,7.50
2023-03-20T06:42:40.726Z,8.20
2023-03-20T06:45:08.178Z,8.83
2023-03-20T06:47:34.809Z,8.20
2023-03-20T06:50:01.472Z,7.57
2023-03-20T06:52:28.095Z,8.00
2023-03-20T06:54:56.223Z,7.03
2023-03-20T06:57:23.039Z,7.87
2023-03-20T06:59:49.777Z,7.30
2023-03-20T07:02:16.989Z,7.20
2023-03-20T07:04:43.874Z,6.87
2023-03-20T07:07:10.567Z,6.07
2023-03-20T07:09:37.195Z,7.67
2023-03-20T07:12:04.718Z,6.17
2023-03-20T07:14:31.523Z,5.97
2023-03-20T07:16:58.406Z,6.33
2023-03-20T07:19:25.488Z,6.87
2023-03-20T07:22:01.735Z,7.77
2023-03-20T07:24:28.442Z,8.23
2023-03-20T07:26:55.081Z,7.03
2023-03-20T07:29:21.932Z,6.27
2023-03-20T07:31:48.687Z,6.30
2023-03-20T07:34:15.727Z,7.57
2023-03-20T07:36:42.490Z,6.83
2023-03-20T07:39:09.977Z,5.87
2023-03-20T07:41:36.915Z,5.77
2023-03-20T07:44:03.817Z,6.47
2023-03-20T07:46:30.434Z,7.03
2023-03-20T07:48:58.135Z,6.83
2023-03-20T07:51:25.294Z,5.90
2023-03-20T07:53:51.986Z,6.47
2023-03-20T07:56:18.592Z,6.57
2023-03-20T07:58:45.498Z,6.53
2023-03-20T08:01:12.097Z,5.90
2023-03-20T08:03:39.849Z,6.10
2023-03-20T08:06:09.522Z,6.30
2023-03-20T08:08:36.297Z,5.80
2023-03-20T08:11:03.045Z,5.80
2023-03-20T08:13:29.694Z,5.70
2023-03-20T08:15:56.375Z,5.63
2023-03-20T08:18:22.989Z,5.57
2023-03-20T08:20:52.648Z,5.00
2023-03-20T08:23:20.745Z,5.87
2023-03-20T08:25:52.586Z,5.00
2023-03-20T08:28:19.330Z,4.67
2023-03-20T08:30:46.144Z,4.60
2023-03-20T08:33:13.764Z,5.40
2023-03-20T08:35:40.693Z,5.60
2023-03-20T08:38:07.300Z,5.30
2023-03-20T08:40:34.026Z,5.17
2023-03-20T08:43:00.896Z,5.23
2023-03-20T08:45:27.592Z,5.50
2023-03-20T08:47:54.983Z,5.70
2023-03-20T08:50:21.648Z,5.23
2023-03-20T08:52:48.264Z,5.00
2023-03-20T08:55:15.787Z,4.90
2023-03-20T08:57:42.960Z,5.70
2023-03-20T09:00:14.290Z,5.70
2023-03-20T09:02:41.616Z,6.60
2023-03-20T09:05:09.439Z,6.63
2023-03-20T09:07:36.924Z,6.17
2023-03-20T09:10:05.061Z,6.17
2023-03-20T09:12:32.698Z,6.27
2023-03-20T09:14:59.724Z,7.77
2023-03-20T09:17:26.351Z,8.03
2023-03-20T09:19:53.274Z,6.83
2023-03-20T09:22:20.237Z,6.60
2023-03-20T09:24:46.899Z,6.20
2023-03-20T09:27:13.981Z,5.40
2023-03-20T09:29:43.842Z,6.23
2023-03-20T09:32:13.078Z,5.40
2023-03-20T09:34:39.908Z,5.67
2023-03-20T09:37:06.675Z,5.90
2023-03-20T09:39:34.198Z,5.87
2023-03-20T09:42:28.234Z,5.03
2023-03-20T09:45:05.206Z,5.87
2023-03-20T09:47:34.919Z,5.80
2023-03-20T09:50:31.780Z,5.70
2023-03-20T09:53:16.820Z,5.73
2023-03-20T09:55:44.321Z,6.70
2023-03-20T09:58:21.544Z,5.40
2023-03-20T10:00:48.780Z,7.00
2023-03-20T10:03:19.657Z,7.47
2023-03-20T10:05:56.761Z,7.07
2023-03-20T10:08:36.168Z,6.63
2023-03-20T10:11:16.009Z,8.00
2023-03-20T10:14:21.878Z,6.60
2023-03-20T10:17:11.172Z,7.40
2023-03-20T10:19:45.498Z,6.70
2023-03-20T10:22:14.903Z,7.20
2023-03-20T10:25:04.907Z,7.80
2023-03-20T10:27:39.476Z,8.17
2023-03-20T10:30:21.314Z,7.93
2023-03-20T10:33:16.862Z,7.37
2023-03-20T10:36:03.098Z,6.90
2023-03-20T10:39:00.725Z,6.10
2023-03-20T10:41:32.264Z,6.27
2023-03-20T10:44:00.547Z,7.07
2023-03-20T10:46:34.688Z,6.83
2023-03-20T10:49:14.134Z,7.90
2023-03-20T10:51:48.329Z,8.53
2023-03-20T10:54:39.324Z,6.57
2023-03-20T10:57:10.375Z,7.30
2023-03-20T10:59:48.859Z,6.27
2023-03-20T11:02:17.202Z,6.83
2023-03-20T11:04:44.561Z,5.97
2023-03-20T11:07:32.674Z,5.80
2023-03-20T11:10:14.341Z,6.30
2023-03-20T11:12:49.503Z,6.70
2023-03-20T11:15:33.278Z,6.57
2023-03-20T11:18:02.741Z,5.50
2023-03-20T11:20:41.059Z,6.40
2023-03-20T11:23:10.920Z,5.23
2023-03-20T11:25:45.122Z,5.47
2023-03-20T11:28:32.442Z,6.13
2023-03-20T11:31:05.484Z,6.00
2023-03-20T11:33:37.122Z,5.87
2023-03-20T11:36:12.281Z,5.90
2023-03-20T11:38:45.944Z,6.13
2023-03-20T11:41:46.085Z,6.80
2023-03-20T11:44:30.312Z,5.80
2023-03-20T11:47:03.977Z,6.10
2023-03-20T11:49:32.789Z,5.60
2023-03-20T11:52:12.477Z,5.57
2023-03-20T11:54:46.799Z,6.60
2023-03-20T11:57:41.153Z,6.00
2023-03-20T12:00:10.805Z,5.47
2023-03-20T12:02:41.277Z,5.80
2023-03-20T12:05:33.534Z,4.93
2023-03-20T12:08:09.209Z,5.30
2023-03-20T12:10:41.031Z,6.93
2023-03-20T12:13:20.068Z,5.83
2023-03-20T12:15:50.882Z,5.90
2023-03-20T12:18:35.773Z,6.00
2023-03-20T12:21:19.607Z,6.60
2023-03-20T12:24:01.725Z,6.60
2023-03-20T12:26:51.020Z,5.73
2023-03-20T12:29:28.261Z,5.73
2023-03-20T12:32:04.323Z,6.10
2023-03-20T12:34:51.296Z,5.90
2023-03-20T12:37:18.461Z,5.20
2023-03-20T12:39:55.455Z,6.17
2023-03-20T12:42:59.699Z,4.60
2023-03-20T12:45:38.819Z,5.70
2023-03-20T12:48:37.665Z,5.07
2023-03-20T12:51:41.003Z,4.90
2023-03-20T12:54:23.650Z,4.60
2023-03-20T12:57:26.360Z,5.60
2023-03-20T13:00:18.684Z,4.90
2023-03-20T13:03:17.896Z,5.27
2023-03-20T13:05:58.025Z,5.07
2023-03-20T13:08:52.755Z,5.67
2023-03-20T13:11:39.350Z,4.83
2023-03-20T13:15:01.801Z,6.20
2023-03-20T13:17:39.568Z,5.93
2023-03-20T13:20:27.010Z,5.40
2023-03-20T13:23:08.848Z,5.73
2023-03-20T13:25:56.976Z,4.87
2023-03-20T13:28:40.952Z,4.40
2023-03-20T13:31:27.050Z,5.00
2023-03-20T13:34:18.551Z,5.70
2023-03-20T13:37:22.019Z,5.00
2023-03-20T13:40:18.612Z,3.87
2023-03-20T13:43:17.520Z,4.87
2023-03-20T13:45:44.541Z,4.13
2023-03-20T13:48:35.275Z,4.33
2023-03-20T13:51:06.257Z,4.93
2023-03-20T13:53:50.993Z,5.07
2023-03-20T13:56:26.061Z,5.60
2023-03-20T13:58:58.932Z,4.70
2023-03-20T14:01:47.604Z,5.20
2023-03-20T14:04:21.667Z,4.80
2023-03-20T14:06:53.515Z,5.13
2023-03-20T14:09:29.792Z,4.30
2023-03-20T14:12:07.501Z,4.60
2023-03-20T14:14:47.537Z,5.33
2023-03-20T14:17:27.303Z,4.70
2023-03-20T14:19:55.782Z,4.53
2023-03-20T14:22:27.633Z,4.47
2023-03-20T14:25:00.264Z,4.53
2023-03-20T14:27:43.293Z,4.80
2023-03-20T14:30:32.686Z,5.30
2023-03-20T14:33:25.981Z,5.10
2023-03-20T14:36:19.275Z,4.60
2023-03-20T14:39:01.077Z,4.67
2023-03-20T14:41:35.915Z,4.13
2023-03-20T14:44:16.451Z,5.43
2023-03-20T14:46:47.014Z,4.30
2023-03-20T14:49:24.460Z,5.30
2023-03-20T14:51:58.526Z,5.10
2023-03-20T14:54:30.915Z,4.03
2023-03-20T14:57:20.045Z,4.20
2023-03-20T14:59:49.879Z,5.20
2023-03-20T15:02:26.755Z,4.40
2023-03-20T15:04:53.548Z,4.30
2023-03-20T15:07:30.273Z,4.27
2023-03-20T15:10:02.806Z,4.20
2023-03-20T15:12:34.611Z,5.90
2023-03-20T15:15:04.233Z,4.70
2023-03-20T15:17:47.377Z,4.37
2023-03-20T15:20:22.965Z,5.60
2023-03-20T15:22:58.076Z,6.10
2023-03-20T15:25:46.339Z,4.80
2023-03-20T15:28:19.314Z,5.60
2023-03-20T15:30:47.976Z,4.87
2023-03-20T15:33:24.603Z,4.93
2023-03-20T15:35:51.853Z,4.87
2023-03-20T15:38:19.536Z,5.50
2023-03-20T15:40:51.422Z,5.93
2023-03-20T15:43:27.885Z,5.00
2023-03-20T15:46:16.123Z,5.50
2023-03-20T15:48:48.545Z,4.70
2023-03-20T15:51:15.927Z,5.60
2023-03-20T15:53:47.283Z,5.23
2023-03-20T15:56:18.988Z,5.47
2023-03-20T15:58:49.466Z,6.00
2023-03-20T16:01:25.737Z,4.90
2023-03-20T16:03:57.961Z,6.20
2023-03-20T16:06:25.526Z,5.07
2023-03-20T16:09:21.553Z,5.80
2023-03-20T16:11:59.862Z,6.77
2023-03-20T16:14:31.515Z,6.43
2023-03-20T16:17:00.368Z,5.90
2023-03-20T16:19:28.853Z,6.70
2023-03-20T16:22:12.536Z,6.40
2023-03-20T16:24:40.296Z,6.30
2023-03-20T16:27:08.712Z,6.60
2023-03-20T16:29:36.983Z,8.00
2023-03-20T16:32:12.694Z,6.40
2023-03-20T16:34:39.623Z,8.70
2023-03-20T16:37:20.644Z,5.90
2023-03-20T16:39:47.320Z,6.20
2023-03-20T16:42:25.785Z,7.47
2023-03-20T16:44:57.665Z,7.13
2023-03-20T16:47:36.344Z,7.43
2023-03-20T16:50:17.338Z,7.17
2023-03-20T16:52:48.970Z,7.60
2023-03-20T16:55:21.335Z,8.50
2023-03-20T16:57:51.629Z,8.00
2023-03-20T17:00:50.991Z,6.93
2023-03-20T17:03:20.325Z,6.60
2023-03-20T17:06:04.180Z,7.70
2023-03-20T17:08:41.533Z,6.90
2023-03-20T17:11:27.800Z,7.60
2023-03-20T17:13:54.565Z,7.13
2023-03-20T17:16:22.181Z,7.00
2023-03-20T17:19:07.240Z,7.77
2023-03-20T17:21:34.351Z,7.97
2023-03-20T17:24:01.153Z,7.53
2023-03-20T17:26:27.834Z,7.73
2023-03-20T17:28:55.226Z,7.80
2023-03-20T17:31:22.064Z,8.77
2023-03-20T17:33:48.730Z,7.57
2023-03-20T17:36:26.335Z,8.97
2023-03-20T17:38:54.003Z,8.33
2023-03-20T17:41:21.245Z,7.10
2023-03-20T17:43:48.418Z,7.80
2023-03-20T17:46:20.457Z,8.37
2023-03-20T17:48:49.148Z,8.20
2023-03-20T17:51:15.895Z,8.30
2023-03-20T17:53:43.614Z,9.03
2023-03-20T17:56:14.687Z,9.23
2023-03-20T17:58:44.589Z,9.60
2023-03-20T18:01:12.708Z,8.90
2023-03-20T18:03:40.359Z,8.60
2023-03-20T18:06:07.725Z,9.47
2023-03-20T18:08:34.363Z,11.03
2023-03-20T18:11:00.966Z,11.40
2023-03-20T18:13:28.548Z,10.80
2023-03-20T18:15:57.876Z,11.00
2023-03-20T18:18:25.810Z,10.70
2023-03-20T18:20:54.621Z,10.37
2023-03-20T18:23:21.800Z,10.23
2023-03-20T18:25:48.509Z,9.90
2023-03-20T18:28:24.400Z,9.90
2023-03-20T18:30:51.718Z,11.03
2023-03-20T18:33:19.358Z,11.43
2023-03-20T18:35:46.331Z,10.27
2023-03-20T18:38:14.177Z,10.03
2023-03-20T18:40:42.559Z,10.13
2023-03-20T18:43:10.230Z,11.63
2023-03-20T18:45:38.716Z,10.23
2023-03-20T18:48:05.994Z,11.03
2023-03-20T18:50:37.627Z,9.30
2023-03-20T18:53:05.700Z,10.20
2023-03-20T18:55:33.123Z,9.80
2023-03-20T18:58:03.984Z,9.77
2023-03-20T19:00:40.391Z,10.77
2023-03-20T19:03:08.453Z,9.20
2023-03-20T19:05:35.448Z,9.43
2023-03-20T19:08:03.323Z,11.20
2023-03-20T19:10:32.949Z,12.17
2023-03-20T19:12:59.695Z,11.07
2023-03-20T19:15:28.014Z,11.90
2023-03-20T19:17:55.603Z,12.77
2023-03-20T19:20:40.196Z,11.43
2023-03-20T19:23:09.197Z,12.37
2023-03-20T19:25:36.892Z,13.30
2023-03-20T19:28:04.932Z,12.20
2023-03-20T19:30:39.630Z,13.37
2023-03-20T19:33:07.456Z,12.43
2023-03-20T19:38:22.138Z,13.00
2023-03-20T19:40:52.956Z,13.57
2023-03-20T19:43:21.686Z,12.33
2023-03-20T19:45:51.789Z,14.40
2023-03-20T19:48:20.891Z,13.40
2023-03-20T19:50:51.207Z,13.30
2023-03-20T19:53:24.951Z,13.57
2023-03-20T19:55:51.912Z,13.83
2023-03-20T19:58:18.586Z,11.80
2023-03-20T20:01:01.011Z,13.00
2023-03-20T20:03:27.961Z,11.83
2023-03-20T20:05:55.469Z,11.30
2023-03-20T20:08:33.390Z,11.90
2023-03-20T20:11:11.793Z,12.60
2023-03-20T20:13:51.168Z,10.70
2023-03-20T20:16:25.755Z,12.03
2023-03-20T20:18:52.366Z,11.60
2023-03-20T20:22:10.109Z,11.30
2023-03-20T20:24:05.858Z,9.87
2023-03-20T20:26:38.857Z,12.20
2023-03-20T20:29:07.675Z,11.17
2023-03-20T20:31:34.367Z,10.70
2023-03-20T20:34:52.777Z,11.37
2023-03-20T20:37:40.724Z,11.60
2023-03-20T20:39:34.960Z,12.13
2023-03-20T20:42:01.978Z,12.30
2023-03-20T20:44:28.726Z,11.97
2023-03-20T20:46:55.615Z,11.40
2023-03-20T20:49:22.385Z,12.20
2023-03-20T20:51:49.292Z,12.07
2023-03-20T20:54:16.775Z,13.03
2023-03-20T20:56:43.421Z,11.80
2023-03-20T20:59:10.160Z,12.13
2023-03-20T21:01:36.822Z,11.27
2023-03-20T21:04:03.778Z,13.20
2023-03-20T21:06:58.217Z,11.70
2023-03-20T21:09:17.352Z,12.40
2023-03-20T21:11:44.033Z,11.67
2023-03-20T21:14:10.667Z,12.30
2023-03-20T21:16:37.337Z,12.70
2023-03-20T21:19:04.083Z,12.80
2023-03-20T21:21:30.758Z,12.20
2023-03-20T21:23:57.376Z,12.50
2023-03-20T21:26:24.216Z,14.20
2023-03-20T21:28:51.441Z,12.67
2023-03-20T21:31:27.352Z,14.33
2023-03-20T21:33:55.835Z,12.90
2023-03-20T21:36:23.384Z,14.10
2023-03-20T21:39:08.711Z,13.33
2023-03-20T21:41:40.784Z,12.47
2023-03-20T21:44:08.342Z,14.80
2023-03-20T21:52:54.660Z,14.30
2023-03-20T21:58:44.381Z,15.23
2023-03-20T22:03:43.998Z,15.50
2023-03-20T22:09:45.696Z,14.10
2023-03-20T22:12:26.108Z,13.60
2023-03-20T22:17:55.888Z,11.37
2023-03-20T22:20:56.433Z,13.47
2023-03-20T22:26:44.287Z,15.40
2023-03-20T22:31:56.284Z,19.07
2023-03-20T22:34:39.849Z,20.30
2023-03-20T22:45:11.832Z,21.40
2023-03-20T22:47:38.925Z,22.70
2023-03-20T22:50:06.195Z,22.33
2023-03-20T22:52:48.132Z,20.67
2023-03-20T22:55:17.353Z,20.00
2023-03-20T22:57:56.033Z,19.03
2023-03-20T23:00:30.645Z,18.23
2023-03-20T23:03:06.718Z,19.23
2023-03-20T23:05:39.817Z,18.63
2023-03-20T23:08:08.026Z,19.60
2023-03-20T23:10:37.818Z,18.63
2023-03-20T23:13:05.128Z,18.53
2023-03-20T23:15:31.927Z,19.87
2023-03-20T23:17:58.727Z,20.10
2023-03-20T23:20:25.463Z,20.07
2023-03-20T23:22:52.054Z,19.73
2023-03-20T23:25:36.025Z,20.70
2023-03-20T23:28:06.054Z,21.47
2023-03-20T23:30:43.518Z,21.70
2023-03-20T23:33:11.868Z,20.73
2023-03-20T23:35:38.581Z,22.67
2023-03-20T23:38:05.287Z,21.93
2023-03-20T23:40:32.156Z,21.77
2023-03-20T23:42:58.796Z,21.20
2023-03-20T23:45:25.364Z,24.20
2023-03-20T23:47:51.975Z,23.13
2023-03-20T23:50:31.941Z,23.50
2023-03-20T23:53:13.632Z,22.17
2023-03-20T23:55:47.559Z,23.73
2023-03-20T23:58:14.716Z,22.20
